createdAt,value
2023-01-29T00:01:58.522Z,0.69
2023-01-29T00:04:25.228Z,0.57
2023-01-29T00:06:51.852Z,0.61
2023-01-29T00:09:18.895Z,0.67
2023-01-29T00:11:45.529Z,0.66
2023-01-29T00:14:12.273Z,0.65
2023-01-29T00:16:38.937Z,0.57
2023-01-29T00:19:05.730Z,0.59
2023-01-29T00:21:32.363Z,0.62
2023-01-29T00:24:00.031Z,0.60
2023-01-29T00:26:27.474Z,0.58
2023-01-29T00:28:54.573Z,0.50
2023-01-29T00:31:25.228Z,0.53
2023-01-29T00:33:52.485Z,0.63
2023-01-29T00:36:21.005Z,0.69
2023-01-29T00:38:54.911Z,0.67
2023-01-29T00:41:41.527Z,0.50
2023-01-29T00:44:26.626Z,0.48
2023-01-29T00:46:53.529Z,0.53
2023-01-29T00:49:20.672Z,0.57
2023-01-29T00:52:06.213Z,0.48
2023-01-29T00:54:33.277Z,0.49
2023-01-29T00:57:00.838Z,0.40
2023-01-29T00:59:27.689Z,0.33
2023-01-29T01:02:13.410Z,0.45
2023-01-29T01:04:40.493Z,0.46
2023-01-29T01:07:07.411Z,0.45
2023-01-29T01:09:56.196Z,0.39
2023-01-29T01:12:23.151Z,0.37
2023-01-29T01:14:50.096Z,0.31
2023-01-29T01:17:17.284Z,0.40
2023-01-29T01:19:43.907Z,0.29
2023-01-29T01:22:11.067Z,0.26
2023-01-29T01:24:38.336Z,0.28
2023-01-29T01:27:05.760Z,0.27
2023-01-29T01:29:32.811Z,0.34
2023-01-29T01:32:00.170Z,0.25
2023-01-29T01:34:27.177Z,0.21
2023-01-29T01:36:55.906Z,0.21
2023-01-29T01:39:23.850Z,0.17
2023-01-29T01:41:53.609Z,0.14
2023-01-29T01:44:51.521Z,0.12
2023-01-29T01:47:23.762Z,0.17
2023-01-29T01:49:51.382Z,0.21
2023-01-29T01:52:19.559Z,0.35
2023-01-29T01:54:46.762Z,0.21
2023-01-29T01:57:18.453Z,0.21
2023-01-29T01:59:53.489Z,0.11
2023-01-29T02:02:39.420Z,-0.02
2023-01-29T02:05:26.043Z,-0.03
2023-01-29T02:08:11.434Z,0.03
2023-01-29T02:10:49.788Z,0.08
2023-01-29T02:13:19.529Z,0.01
2023-01-29T02:15:48.582Z,-0.05
2023-01-29T02:18:20.239Z,-0.13
2023-01-29T02:21:15.185Z,-0.13
2023-01-29T02:24:11.433Z,-0.03
2023-01-29T02:26:50.060Z,0.03
2023-01-29T02:29:47.347Z,-0.01
2023-01-29T02:32:23.512Z,0.03
2023-01-29T02:35:09.101Z,0.07
2023-01-29T02:37:50.375Z,-0.04
2023-01-29T02:40:44.066Z,-0.14
2023-01-29T02:43:26.093Z,-0.18
2023-01-29T02:46:16.917Z,-0.16
2023-01-29T02:49:18.894Z,-0.16
2023-01-29T02:52:11.533Z,-0.03
2023-01-29T02:54:51.753Z,-0.07
2023-01-29T02:57:29.290Z,-0.19
2023-01-29T03:00:02.835Z,-0.20
2023-01-29T03:02:40.270Z,-0.25
2023-01-29T03:05:13.169Z,-0.45
2023-01-29T03:07:46.292Z,-0.38
2023-01-29T03:11:06.918Z,-0.27
2023-01-29T03:13:45.380Z,-0.39
2023-01-29T03:16:19.272Z,-0.34
2023-01-29T03:18:54.132Z,-0.29
2023-01-29T03:21:44.387Z,-0.22
2023-01-29T03:24:32.235Z,-0.27
2023-01-29T03:27:22.977Z,-0.33
2023-01-29T03:30:10.182Z,-0.38
2023-01-29T03:33:02.904Z,-0.24
2023-01-29T03:35:39.580Z,-0.22
2023-01-29T03:38:10.159Z,-0.32
2023-01-29T03:40:52.497Z,-0.38
2023-01-29T03:43:26.330Z,-0.39
2023-01-29T03:46:19.122Z,-0.33
2023-01-29T03:48:45.896Z,-0.35
2023-01-29T03:51:27.968Z,-0.24
2023-01-29T03:54:20.171Z,-0.25
2023-01-29T03:57:15.568Z,-0.38
2023-01-29T04:00:19.249Z,-0.50
2023-01-29T04:03:26.859Z,-0.54
2023-01-29T04:06:09.946Z,-0.52
2023-01-29T04:09:22.143Z,-0.53
2023-01-29T04:12:09.124Z,-0.49
2023-01-29T04:14:39.422Z,-0.43
2023-01-29T04:17:19.966Z,-0.51
2023-01-29T04:19:56.909Z,-0.58
2023-01-29T04:22:31.249Z,-0.48
2023-01-29T04:25:02.690Z,-0.48
2023-01-29T04:27:37.771Z,-0.59
2023-01-29T04:30:18.115Z,-0.64
2023-01-29T04:32:55.311Z,-0.63
2023-01-29T04:35:30.181Z,-0.53
2023-01-29T04:38:06.685Z,-0.61
2023-01-29T04:40:39.352Z,-0.67
2023-01-29T04:43:27.191Z,-0.71
2023-01-29T04:46:12.888Z,-0.70
2023-01-29T04:48:42.566Z,-0.69
2023-01-29T04:51:12.033Z,-0.67
2023-01-29T04:53:59.976Z,-0.68
2023-01-29T04:56:39.038Z,-0.62
2023-01-29T04:59:09.958Z,-0.71
2023-01-29T05:01:38.605Z,-0.61
2023-01-29T05:04:10.981Z,-0.56
2023-01-29T05:06:39.350Z,-0.61
2023-01-29T05:09:07.390Z,-0.67
2023-01-29T05:11:35.830Z,-0.76
2023-01-29T05:14:05.455Z,-0.66
2023-01-29T05:16:42.114Z,-0.71
2023-01-29T05:19:14.654Z,-0.75
2023-01-29T05:21:44.788Z,-0.73
2023-01-29T05:24:11.492Z,-0.75
2023-01-29T05:26:56.633Z,-0.78
2023-01-29T05:29:23.365Z,-0.76
2023-01-29T05:31:50.019Z,-0.82
2023-01-29T05:34:17.026Z,-0.82
2023-01-29T05:36:43.721Z,-0.85
2023-01-29T05:39:10.428Z,-0.89
2023-01-29T05:41:37.124Z,-0.83
2023-01-29T05:44:03.889Z,-0.82
2023-01-29T05:46:30.595Z,-0.86
2023-01-29T05:48:57.384Z,-0.86
2023-01-29T05:51:23.908Z,-0.83
2023-01-29T05:53:50.758Z,-0.92
2023-01-29T05:56:17.403Z,-0.94
2023-01-29T05:58:44.017Z,-0.98
2023-01-29T06:01:13.699Z,-1.02
2023-01-29T06:03:41.431Z,-0.98
2023-01-29T06:06:08.832Z,-0.91
2023-01-29T06:08:36.153Z,-0.90
2023-01-29T06:11:03.015Z,-1.01
2023-01-29T06:13:29.603Z,-1.07
2023-01-29T06:15:56.292Z,-1.07
2023-01-29T06:18:23.063Z,-0.87
2023-01-29T06:20:49.589Z,-0.90
2023-01-29T06:23:16.303Z,-0.95
2023-01-29T06:25:43.086Z,-1.02
2023-01-29T06:28:09.744Z,-1.05
2023-01-29T06:30:36.363Z,-1.01
2023-01-29T06:33:03.210Z,-0.93
2023-01-29T06:35:30.163Z,-0.88
2023-01-29T06:37:56.897Z,-0.99
2023-01-29T06:40:23.576Z,-1.12
2023-01-29T06:42:50.285Z,-1.10
2023-01-29T06:45:16.881Z,-1.07
2023-01-29T06:47:43.625Z,-1.00
2023-01-29T06:50:11.599Z,-1.08
2023-01-29T06:52:38.292Z,-1.15
2023-01-29T06:55:05.423Z,-1.18
2023-01-29T06:57:32.061Z,-1.13
2023-01-29T06:59:58.626Z,-1.19
2023-01-29T07:02:25.388Z,-1.14
2023-01-29T07:04:52.033Z,-1.11
2023-01-29T07:07:18.840Z,-1.13
2023-01-29T07:09:45.709Z,-1.13
2023-01-29T07:12:12.326Z,-1.09
2023-01-29T07:14:38.973Z,-1.06
2023-01-29T07:17:05.745Z,-1.10
2023-01-29T07:19:33.058Z,-1.08
2023-01-29T07:22:02.413Z,-1.05
2023-01-29T07:24:29.274Z,-1.13
2023-01-29T07:26:56.093Z,-1.15
2023-01-29T07:29:22.747Z,-1.24
2023-01-29T07:31:49.566Z,-1.23
2023-01-29T07:34:16.328Z,-1.20
2023-01-29T07:36:43.047Z,-1.15
2023-01-29T07:39:09.736Z,-1.13
2023-01-29T07:41:36.457Z,-1.04
2023-01-29T07:44:10.836Z,-1.00
2023-01-29T07:46:37.505Z,-1.05
2023-01-29T07:49:04.093Z,-1.09
2023-01-29T07:51:30.797Z,-1.11
2023-01-29T07:53:57.390Z,-1.28
2023-01-29T07:56:24.075Z,-1.06
2023-01-29T07:58:50.689Z,-0.94
2023-01-29T08:01:17.430Z,-0.94
2023-01-29T08:03:44.074Z,-1.05
2023-01-29T08:06:10.724Z,-1.00
2023-01-29T08:08:37.306Z,-0.84
2023-01-29T08:11:05.665Z,-0.87
2023-01-29T08:13:32.680Z,-0.76
2023-01-29T08:16:01.210Z,-0.74
2023-01-29T08:18:27.887Z,-0.73
2023-01-29T08:21:00.405Z,-0.57
2023-01-29T08:23:27.166Z,-0.47
2023-01-29T08:25:53.858Z,-0.47
2023-01-29T08:28:20.720Z,-0.36
2023-01-29T08:30:47.457Z,-0.32
2023-01-29T08:33:14.153Z,-0.31
2023-01-29T08:35:41.376Z,-0.32
2023-01-29T08:38:10.195Z,-0.30
2023-01-29T08:40:37.480Z,-0.21
2023-01-29T08:43:09.517Z,-0.13
2023-01-29T08:45:40.220Z,-0.18
2023-01-29T08:48:07.804Z,-0.09
2023-01-29T08:50:35.113Z,-0.04
2023-01-29T08:53:04.361Z,0.06
2023-01-29T08:55:31.001Z,-0.02
2023-01-29T08:57:57.695Z,0.06
2023-01-29T09:00:24.689Z,0.02
2023-01-29T09:02:51.349Z,0.09
2023-01-29T09:05:18.533Z,0.16
2023-01-29T09:07:45.349Z,0.14
2023-01-29T09:10:12.322Z,0.31
2023-01-29T09:12:39.260Z,0.45
2023-01-29T09:15:06.336Z,0.41
2023-01-29T09:17:33.039Z,0.40
2023-01-29T09:19:59.706Z,0.43
2023-01-29T09:22:26.403Z,0.43
2023-01-29T09:24:52.997Z,0.45
2023-01-29T09:27:19.768Z,0.35
2023-01-29T09:29:46.365Z,0.55
2023-01-29T09:32:13.133Z,0.59
2023-01-29T09:34:40.157Z,0.67
2023-01-29T09:37:06.878Z,0.67
2023-01-29T09:39:33.816Z,0.76
2023-01-29T09:42:24.543Z,0.84
2023-01-29T09:45:03.886Z,0.83
2023-01-29T09:47:33.447Z,0.82
2023-01-29T09:50:26.415Z,0.82
2023-01-29T09:53:02.084Z,0.78
2023-01-29T09:55:43.738Z,0.84
2023-01-29T09:58:28.103Z,0.83
2023-01-29T10:01:04.691Z,0.86
2023-01-29T10:03:34.156Z,0.80
2023-01-29T10:06:23.307Z,0.87
2023-01-29T10:09:25.834Z,0.85
2023-01-29T10:12:05.673Z,0.85
2023-01-29T10:14:41.775Z,0.96
2023-01-29T10:17:31.090Z,1.03
2023-01-29T10:20:39.105Z,1.13
2023-01-29T10:23:11.478Z,1.18
2023-01-29T10:25:41.822Z,1.19
2023-01-29T10:28:21.490Z,1.16
2023-01-29T10:30:57.619Z,1.17
2023-01-29T10:33:49.389Z,1.22
2023-01-29T10:36:38.589Z,1.24
2023-01-29T10:39:05.256Z,1.23
2023-01-29T10:42:06.604Z,1.55
2023-01-29T10:44:41.610Z,1.87
2023-01-29T10:47:42.234Z,2.01
2023-01-29T10:50:28.504Z,1.94
2023-01-29T10:53:07.298Z,1.93
2023-01-29T10:55:36.890Z,1.94
2023-01-29T10:58:24.707Z,1.93
2023-01-29T11:00:51.561Z,1.93
2023-01-29T11:06:17.333Z,1.94
2023-01-29T11:08:54.318Z,1.88
2023-01-29T11:11:26.277Z,2.23
2023-01-29T11:14:00.366Z,2.78
2023-01-29T11:16:30.069Z,2.72
2023-01-29T11:19:00.081Z,2.69
2023-01-29T11:21:28.518Z,2.58
2023-01-29T11:24:07.232Z,2.60
2023-01-29T11:26:38.083Z,2.68
2023-01-29T11:29:04.923Z,2.74
2023-01-29T11:31:38.944Z,2.69
2023-01-29T11:34:16.650Z,2.69
2023-01-29T11:36:45.026Z,2.90
2023-01-29T11:39:17.475Z,3.01
2023-01-29T11:41:53.182Z,3.06
2023-01-29T11:44:20.854Z,3.12
2023-01-29T11:46:48.752Z,3.20
2023-01-29T11:49:28.022Z,3.54
2023-01-29T11:51:56.501Z,3.62
2023-01-29T11:54:28.089Z,3.84
2023-01-29T11:56:56.111Z,3.86
2023-01-29T11:59:54.996Z,4.00
2023-01-29T12:02:28.074Z,4.09
2023-01-29T12:05:00.418Z,4.20
2023-01-29T12:07:28.792Z,4.21
2023-01-29T12:09:58.085Z,4.25
2023-01-29T12:12:30.127Z,4.27
2023-01-29T12:15:05.133Z,4.31
2023-01-29T12:17:35.387Z,4.42
2023-01-29T12:20:13.548Z,4.56
2023-01-29T12:22:53.410Z,4.66
2023-01-29T12:25:26.017Z,4.64
2023-01-29T12:28:27.957Z,4.60
2023-01-29T12:31:11.530Z,4.68
2023-01-29T12:33:49.441Z,4.70
2023-01-29T12:36:28.988Z,4.78
2023-01-29T12:38:55.983Z,4.96
2023-01-29T12:41:33.756Z,4.99
2023-01-29T12:44:15.733Z,4.94
2023-01-29T12:46:50.963Z,5.02
2023-01-29T12:49:22.960Z,5.04
2023-01-29T12:51:59.534Z,5.09
2023-01-29T12:54:36.982Z,5.07
2023-01-29T12:57:28.714Z,5.18
2023-01-29T13:00:02.543Z,5.19
2023-01-29T13:02:39.827Z,5.35
2023-01-29T13:05:24.641Z,5.27
2023-01-29T13:08:01.374Z,5.41
2023-01-29T13:10:35.060Z,5.43
2023-01-29T13:13:07.303Z,5.44
2023-01-29T13:15:39.758Z,5.46
2023-01-29T13:18:31.209Z,5.41
2023-01-29T13:20:59.388Z,5.53
2023-01-29T13:23:34.677Z,5.61
2023-01-29T13:26:01.828Z,5.64
2023-01-29T13:28:28.557Z,5.75
2023-01-29T13:31:24.815Z,5.76
2023-01-29T13:34:14.933Z,5.80
2023-01-29T13:36:57.185Z,5.87
2023-01-29T13:39:32.985Z,5.99
2023-01-29T13:42:02.916Z,5.94
2023-01-29T13:44:39.692Z,5.96
2023-01-29T13:47:10.790Z,5.84
2023-01-29T13:49:42.330Z,5.95
2023-01-29T13:52:27.653Z,5.99
2023-01-29T13:55:01.655Z,5.96
2023-01-29T13:57:37.240Z,6.02
2023-01-29T14:00:04.967Z,6.13
2023-01-29T14:02:32.069Z,6.24
2023-01-29T14:05:29.831Z,6.32
2023-01-29T14:08:17.445Z,6.33
2023-01-29T14:10:44.661Z,6.32
2023-01-29T14:13:23.512Z,6.30
2023-01-29T14:15:59.197Z,6.30
2023-01-29T14:18:28.403Z,6.34
2023-01-29T14:21:17.775Z,6.34
2023-01-29T14:23:53.546Z,6.35
2023-01-29T14:26:45.531Z,6.37
2023-01-29T14:29:14.438Z,6.42
2023-01-29T14:31:54.731Z,6.41
2023-01-29T14:34:26.829Z,6.44
2023-01-29T14:36:56.901Z,6.41
2023-01-29T14:39:31.217Z,6.33
2023-01-29T14:41:59.510Z,6.31
2023-01-29T14:44:44.536Z,6.26
2023-01-29T14:47:32.926Z,6.25
2023-01-29T14:50:01.919Z,6.19
2023-01-29T14:52:35.933Z,6.17
2023-01-29T14:55:07.712Z,6.15
2023-01-29T14:57:36.377Z,6.14
2023-01-29T15:00:06.450Z,6.10
2023-01-29T15:02:41.245Z,6.11
2023-01-29T15:05:13.437Z,6.06
2023-01-29T15:07:48.872Z,5.97
2023-01-29T15:10:25.222Z,6.02
2023-01-29T15:13:13.871Z,5.97
2023-01-29T15:16:13.305Z,5.98
2023-01-29T15:18:43.969Z,5.95
2023-01-29T15:21:18.689Z,5.88
2023-01-29T15:23:48.812Z,5.86
2023-01-29T15:26:21.712Z,5.80
2023-01-29T15:29:03.524Z,5.75
2023-01-29T15:31:31.286Z,5.67
2023-01-29T15:34:03.116Z,5.57
2023-01-29T15:36:31.610Z,5.46
2023-01-29T15:39:18.915Z,5.40
2023-01-29T15:41:46.018Z,5.33
2023-01-29T15:44:19.150Z,5.26
2023-01-29T15:46:51.021Z,5.15
2023-01-29T15:49:26.040Z,5.10
2023-01-29T15:51:57.557Z,5.06
2023-01-29T15:54:24.979Z,4.95
2023-01-29T15:56:53.453Z,4.88
2023-01-29T15:59:26.596Z,4.77
2023-01-29T16:01:54.079Z,4.73
2023-01-29T16:04:30.976Z,4.70
2023-01-29T16:07:00.469Z,4.68
2023-01-29T16:09:28.837Z,4.69
2023-01-29T16:11:58.634Z,4.68
2023-01-29T16:14:26.804Z,4.55
2023-01-29T16:16:53.966Z,4.38
2023-01-29T16:19:26.154Z,4.22
2023-01-29T16:22:05.902Z,4.22
2023-01-29T16:24:36.309Z,4.10
2023-01-29T16:27:12.761Z,3.99
2023-01-29T16:29:39.863Z,4.00
2023-01-29T16:32:06.975Z,3.98
2023-01-29T16:34:38.652Z,3.94
2023-01-29T16:37:16.462Z,3.88
2023-01-29T16:39:49.058Z,3.91
2023-01-29T16:42:17.385Z,3.95
2023-01-29T16:44:52.069Z,3.89
2023-01-29T16:47:32.406Z,3.80
2023-01-29T16:50:17.625Z,3.74
2023-01-29T16:53:00.333Z,3.71
2023-01-29T16:55:35.370Z,3.71
2023-01-29T16:58:12.077Z,3.61
2023-01-29T17:00:47.764Z,3.54
2023-01-29T17:03:15.401Z,3.48
2023-01-29T17:05:42.562Z,3.41
2023-01-29T17:08:23.364Z,3.37
2023-01-29T17:10:50.192Z,3.19
2023-01-29T17:13:41.745Z,3.32
2023-01-29T17:16:49.045Z,3.30
2023-01-29T17:19:22.575Z,3.20
2023-01-29T17:21:49.602Z,3.18
2023-01-29T17:24:16.355Z,3.24
2023-01-29T17:26:43.534Z,3.16
2023-01-29T17:29:15.564Z,3.05
2023-01-29T17:31:43.377Z,3.00
2023-01-29T17:34:14.855Z,3.00
2023-01-29T17:36:45.172Z,2.99
2023-01-29T17:39:19.734Z,3.02
2023-01-29T17:41:54.451Z,3.08
2023-01-29T17:44:22.244Z,3.10
2023-01-29T17:46:49.574Z,3.08
2023-01-29T17:49:28.466Z,3.07
2023-01-29T17:51:57.043Z,2.97
2023-01-29T17:54:25.544Z,3.02
2023-01-29T17:56:53.057Z,2.99
2023-01-29T17:59:24.852Z,2.97
2023-01-29T18:01:51.947Z,2.94
2023-01-29T18:04:18.757Z,2.83
2023-01-29T18:06:48.575Z,2.88
2023-01-29T18:09:18.967Z,2.80
2023-01-29T18:11:46.606Z,2.68
2023-01-29T18:14:14.727Z,2.71
2023-01-29T18:16:43.186Z,2.76
2023-01-29T18:19:13.937Z,2.76
2023-01-29T18:21:40.587Z,2.79
2023-01-29T18:24:08.203Z,2.74
2023-01-29T18:26:36.007Z,2.70
2023-01-29T18:29:03.352Z,2.52
2023-01-29T18:31:30.295Z,2.55
2023-01-29T18:33:56.990Z,2.51
2023-01-29T18:36:23.985Z,2.53
2023-01-29T18:38:50.579Z,2.54
2023-01-29T18:41:17.233Z,2.60
2023-01-29T18:43:44.323Z,2.53
2023-01-29T18:46:11.168Z,2.48
2023-01-29T18:48:37.886Z,2.40
2023-01-29T18:51:04.946Z,2.26
2023-01-29T18:53:33.536Z,2.24
2023-01-29T18:56:05.245Z,2.17
2023-01-29T18:58:36.661Z,2.29
2023-01-29T19:01:10.736Z,2.33
2023-01-29T19:03:42.044Z,2.31
2023-01-29T19:06:10.751Z,2.29
2023-01-29T19:08:37.784Z,2.27
2023-01-29T19:11:08.099Z,2.29
2023-01-29T19:13:36.374Z,2.38
2023-01-29T19:16:06.858Z,2.35
2023-01-29T19:18:33.617Z,2.37
2023-01-29T19:21:00.427Z,2.32
2023-01-29T19:23:27.084Z,2.36
2023-01-29T19:25:57.157Z,2.31
2023-01-29T19:28:23.766Z,2.20
2023-01-29T19:30:50.442Z,2.21
2023-01-29T19:33:17.162Z,2.20
2023-01-29T19:35:45.417Z,2.28
2023-01-29T19:38:12.212Z,2.21
2023-01-29T19:40:38.979Z,2.17
2023-01-29T19:43:05.926Z,2.14
2023-01-29T19:45:49.645Z,2.04
2023-01-29T19:48:21.425Z,1.99
2023-01-29T19:50:55.860Z,2.00
2023-01-29T19:53:23.136Z,1.85
2023-01-29T19:56:02.714Z,1.80
2023-01-29T19:58:30.597Z,1.78
2023-01-29T20:00:58.812Z,1.84
2023-01-29T20:03:26.432Z,1.91
2023-01-29T20:05:53.340Z,1.88
2023-01-29T20:08:20.663Z,1.82
2023-01-29T20:10:47.937Z,1.79
2023-01-29T20:13:16.191Z,1.74
2023-01-29T20:15:47.591Z,1.69
2023-01-29T20:18:15.087Z,1.72
2023-01-29T20:20:43.244Z,1.79
2023-01-29T20:23:10.972Z,1.80
2023-01-29T20:25:38.065Z,1.64
2023-01-29T20:28:07.597Z,1.54
2023-01-29T20:30:35.088Z,1.49
2023-01-29T20:33:02.843Z,1.58
2023-01-29T20:35:31.082Z,1.53
2023-01-29T20:37:59.098Z,1.67
2023-01-29T20:40:26.235Z,1.64
2023-01-29T20:42:53.285Z,1.64
2023-01-29T20:45:20.402Z,1.62
2023-01-29T20:47:47.082Z,1.67
2023-01-29T20:50:16.242Z,1.58
2023-01-29T20:52:43.129Z,1.54
2023-01-29T20:55:12.098Z,1.52
2023-01-29T20:57:39.490Z,1.64
2023-01-29T21:00:07.609Z,1.61
2023-01-29T21:02:35.161Z,1.64
2023-01-29T21:05:02.195Z,1.72
2023-01-29T21:07:28.947Z,1.67
2023-01-29T21:09:55.513Z,1.54
2023-01-29T21:12:22.210Z,1.58
2023-01-29T21:14:48.791Z,1.56
2023-01-29T21:17:15.582Z,1.46
2023-01-29T21:19:43.994Z,1.42
2023-01-29T21:22:10.744Z,1.53
2023-01-29T21:24:37.331Z,1.59
2023-01-29T21:27:04.007Z,1.52
2023-01-29T21:29:30.719Z,1.56
2023-01-29T21:31:57.482Z,1.53
2023-01-29T21:34:24.354Z,1.49
2023-01-29T21:36:51.089Z,1.40
2023-01-29T21:39:17.929Z,1.38
2023-01-29T21:42:04.197Z,1.33
2023-01-29T21:44:33.450Z,1.31
2023-01-29T21:47:00.857Z,1.35
2023-01-29T21:49:27.862Z,1.45
2023-01-29T21:51:54.697Z,1.47
2023-01-29T21:54:21.466Z,1.45
2023-01-29T21:56:48.190Z,1.36
2023-01-29T21:59:14.974Z,1.46
2023-01-29T22:01:41.717Z,1.42
2023-01-29T22:04:09.719Z,1.29
2023-01-29T22:06:36.304Z,1.21
2023-01-29T22:09:03.116Z,1.07
2023-01-29T22:11:30.086Z,1.09
2023-01-29T22:13:56.749Z,1.11
2023-01-29T22:16:23.362Z,1.09
2023-01-29T22:18:50.233Z,1.20
2023-01-29T22:21:16.845Z,1.18
2023-01-29T22:23:43.603Z,1.13
2023-01-29T22:26:11.001Z,1.18
2023-01-29T22:28:37.813Z,1.12
2023-01-29T22:31:05.502Z,1.14
2023-01-29T22:33:33.520Z,1.09
2023-01-29T22:36:00.550Z,1.11
2023-01-29T22:38:27.562Z,1.05
2023-01-29T22:40:55.674Z,1.03
2023-01-29T22:43:23.259Z,1.09
2023-01-29T22:45:49.792Z,1.03
2023-01-29T22:48:16.531Z,0.97
2023-01-29T22:50:49.255Z,0.87
2023-01-29T22:53:15.960Z,0.70
2023-01-29T22:55:42.580Z,0.91
2023-01-29T22:58:09.252Z,0.85
2023-01-29T23:00:35.912Z,0.88
2023-01-29T23:03:04.373Z,0.82
2023-01-29T23:05:30.972Z,0.80
2023-01-29T23:07:57.647Z,0.92
2023-01-29T23:10:24.270Z,0.87
2023-01-29T23:12:50.943Z,0.77
2023-01-29T23:15:17.577Z,0.75
2023-01-29T23:17:45.306Z,0.79
2023-01-29T23:20:12.526Z,0.71
2023-01-29T23:22:39.297Z,0.66
2023-01-29T23:25:06.484Z,0.77
2023-01-29T23:27:33.169Z,0.77
2023-01-29T23:29:59.778Z,0.75
2023-01-29T23:32:26.734Z,0.72
2023-01-29T23:34:53.424Z,0.72
2023-01-29T23:37:20.099Z,0.69
2023-01-29T23:39:46.837Z,0.67
2023-01-29T23:42:13.454Z,0.66
2023-01-29T23:44:40.953Z,0.63
2023-01-29T23:47:08.424Z,0.71
2023-01-29T23:49:35.051Z,0.68
2023-01-29T23:52:02.309Z,0.55
2023-01-29T23:54:29.315Z,0.48
2023-01-29T23:56:56.077Z,0.62
2023-01-29T23:59:22.791Z,0.58
